Date,TemperatureHighF,TemperatureAvgF,TemperatureLowF,DewpointHighF,DewpointAvgF,DewpointLowF,HumidityHigh,HumidityAvg,HumidityLow,PressureMaxIn,PressureMinIn,WindSpeedMaxMPH,WindSpeedAvgMPH,GustSpeedMaxMPH,PrecipitationSumIn
2013-4-1,75,64,55,59,52,46,97,65,40,29.88,29.76,22,7,22,0.00
2013-4-2,75,65,56,60,54,50,85,67,48,29.88,29.56,17,5,17,0.00
2013-4-3,71,64,59,61,54,49,98,72,50,29.68,29.46,25,9,25,0.00
2013-4-4,73,64,56,54,51,49,78,64,47,29.94,29.68,23,7,23,0.00
2013-4-5,75,64,56,58,51,41,77,64,30,29.95,29.79,32,8,32,0.00
2013-4-6,75,66,56,60,56,51,85,72,55,29.81,29.67,27,4,27,0.00
2013-4-7,70,64,60,63,58,52,95,79,68,29.71,29.31,39,12,39,0.00
2013-4-8,63,59,55,56,53,51,91,81,72,29.88,29.40,16,4,16,0.02
2013-4-9,70,60,52,55,53,50,95,77,57,29.99,29.87,21,6,21,0.00
2013-4-10,72,62,52,56,53,-9,91,73,53,29.99,29.89,61,5,61,0.01
2013-4-11,76,63,53,57,53,49,88,72,46,30.03,29.91,16,3,16,0.00
2013-4-12,75,64,54,58,54,50,91,70,54,30.07,29.98,14,4,14,0.00
2013-4-13,78,67,56,59,54,49,83,66,48,30.10,30.04,14,4,14,0.00
2013-4-14,78,66,52,62,55,36,82,68,48,30.10,30.03,52,9,52,0.01
2013-4-15,65,59,55,53,50,46,83,71,55,30.08,30.00,40,11,40,0.02
2013-4-16,66,57,51,52,48,45,92,73,54,30.07,29.05,32,10,32,0.05
2013-4-17,68,59,54,46,42,37,72,54,36,30.09,30.01,41,13,41,0.07
2013-4-18,67,58,52,45,40,36,71,52,37,30.08,30.00,40,14,40,0.05
2013-4-19,64,57,50,51,44,39,82,62,52,30.01,29.93,32,7,32,0.02
2013-4-20,64,60,55,51,49,47,75,67,62,30.00,29.97,25,11,25,0.00
2013-4-21,72,65,58,54,50,47,71,60,41,29.99,29.93,17,4,17,0.00
2013-4-22,74,61,55,50,48,45,73,61,43,30.07,29.97,18,6,18,0.00
2013-4-23,74,64,54,56,51,45,75,63,51,30.21,30.06,28,7,28,0.00
2013-4-24,78,70,63,57,51,46,69,51,34,30.30,30.24,21,8,21,0.00
2013-4-25,83,77,67,58,54,20,53,45,10,30.27,30.15,24,8,24,0.00
2013-4-26,87,74,61,55,50,46,62,45,28,30.16,29.99,18,5,18,0.00
2013-4-27,83,73,62,54,51,47,64,48,35,29.99,29.90,17,5,17,0.00
2013-4-28,83,71,60,60,52,47,80,53,33,30.05,29.93,18,4,18,0.00
2013-4-29,88,74,61,60,52,44,57,46,33,30.11,30.03,16,3,16,0.00
2013-4-30,88,78,65,60,53,46,53,43,35,30.10,30.02,28,10,28,0.00